Thunder radar more information blitzortung!


Radar de pluja more information rain snow radar


Visita la nostra xarxa de llocs de meteo:

Template documentation
and downloads

And another site



No particular awareness of the weather is required.    There are no Weather-warnings

Pagina Historial Weather Underground text

Diari Resum January 5, 2018 Unitats:  Tant    Imperial   Mètric
« Previous Dia
SegĂźent Dia »
Diari Setmana Mensual Anual Personalitzada
  Maxima: Minima: Media:
Temperatura: TemperatureC °F /  -17.8 °C 5.2 °F /  -14.9 °C 13.7 °F /  -10.2 °C
Punt de rosada: DewpointC °F /  -17.8 °C -1.5 °F /  -18.6 °C 3 °F /  -16.1 °C
Humitat: Humidity % 41 % 49 %
Wind Speed: WindSpeedKMH mph /  0 km/h - 7.1 mph /  11.4 km/h
RĂ fegues de vent: WindSpeedGustKMH mph /  0 km/h - -
Vent:- - WSW
Pression baro: PressurehPa in /  0 hPa 1003.9 in /  33992.1 hPa -
Precipitacions: 0.0 in /  0 mm    
Historical Graphs
 
 
Dades de taula per January 5, 2018
Temps Temperatura Punt de rosada Pression baro Vent Wind Speed RĂ fegues de vent Humitat Rainfall Rate (Hourly)
TemperatureC °F /  -17.8 °C DewpointC °F /  -17.8 °C PressurehPa in /  0 hPa Calm     Humidity % HourlyPrecipMM in /  0 mm
00:00 14.3 °F /  -9.8 °C 4.3 °F /  -15.4 °C 1017.8 in /  34462.7 hPa NW 7.4 mph /  11.9 km/h 7.4 mph /  11.9 km/h 51 % 0.0 in /  0 mm
00:10 11.3 °F /  -11.5 °C 3.1 °F /  -16.1 °C 1012.8 in /  34293.4 hPa WSW 4.8 mph /  7.7 km/h 6.4 mph /  10.3 km/h 57 % 0.0 in /  0 mm
00:20 11.3 °F /  -11.5 °C 3.1 °F /  -16.1 °C 1011.7 in /  34256.2 hPa WSW 4.8 mph /  7.7 km/h 8.0 mph /  12.9 km/h 57 % 0.0 in /  0 mm
00:30 11.2 °F /  -11.6 °C 3.0 °F /  -16.1 °C 1011.7 in /  34256.2 hPa WSW 4.8 mph /  7.7 km/h 6.4 mph /  10.3 km/h 57 % 0.0 in /  0 mm
00:40 11.3 °F /  -11.5 °C 3.1 °F /  -16.1 °C 1012.8 in /  34293.4 hPa WSW 4.8 mph /  7.7 km/h 6.4 mph /  10.3 km/h 57 % 0.0 in /  0 mm
00:50 10.9 °F /  -11.7 °C 2.7 °F /  -16.3 °C 1012.8 in /  34293.4 hPa WSW 3.2 mph /  5.1 km/h 4.8 mph /  7.7 km/h 57 % 0.0 in /  0 mm
01:00 10.6 °F /  -11.9 °C 2.4 °F /  -16.4 °C 1012.8 in /  34293.4 hPa WSW 3.2 mph /  5.1 km/h 4.8 mph /  7.7 km/h 57 % 0.0 in /  0 mm
01:10 10.6 °F /  -11.9 °C 2.4 °F /  -16.4 °C 1012.8 in /  34293.4 hPa WSW 4.8 mph /  7.7 km/h 6.4 mph /  10.3 km/h 57 % 0.0 in /  0 mm
01:20 10.5 °F /  -11.9 °C 2.6 °F /  -16.3 °C 1012.8 in /  34293.4 hPa West 3.2 mph /  5.1 km/h 4.8 mph /  7.7 km/h 58 % 0.0 in /  0 mm
01:30 10.6 °F /  -11.9 °C 2.7 °F /  -16.3 °C 1012.8 in /  34293.4 hPa West 4.8 mph /  7.7 km/h 4.8 mph /  7.7 km/h 58 % 0.0 in /  0 mm
01:40 10.8 °F /  -11.8 °C 2.8 °F /  -16.2 °C 1012.8 in /  34293.4 hPa West 3.2 mph /  5.1 km/h 4.8 mph /  7.7 km/h 58 % 0.0 in /  0 mm
01:50 11.0 °F /  -11.7 °C 3.1 °F /  -16.1 °C 1012.8 in /  34293.4 hPa WSW 3.2 mph /  5.1 km/h 4.8 mph /  7.7 km/h 58 % 0.0 in /  0 mm
02:00 11.1 °F /  -11.6 °C 3.2 °F /  -16 °C 1012.8 in /  34293.4 hPa WSW 4.8 mph /  7.7 km/h 4.8 mph /  7.7 km/h 58 % 0.0 in /  0 mm
02:10 11.1 °F /  -11.6 °C 3.2 °F /  -16 °C 1012.8 in /  34293.4 hPa WSW 4.8 mph /  7.7 km/h 6.4 mph /  10.3 km/h 58 % 0.0 in /  0 mm
02:20 10.9 °F /  -11.7 °C 2.9 °F /  -16.2 °C 1012.8 in /  34293.4 hPa WSW 3.2 mph /  5.1 km/h 6.4 mph /  10.3 km/h 58 % 0.0 in /  0 mm
02:30 10.6 °F /  -11.9 °C 2.7 °F /  -16.3 °C 1012.8 in /  34293.4 hPa WSW 1.6 mph /  2.6 km/h 6.4 mph /  10.3 km/h 58 % 0.0 in /  0 mm
03:00 11.0 °F /  -11.7 °C 3.3 °F /  -15.9 °C 1013.8 in /  34327.3 hPa WSW 3.2 mph /  5.1 km/h 4.8 mph /  7.7 km/h 59 % 0.0 in /  0 mm
03:10 11.1 °F /  -11.6 °C 3.4 °F /  -15.9 °C 1012.8 in /  34293.4 hPa WSW 1.6 mph /  2.6 km/h 6.4 mph /  10.3 km/h 59 % 0.0 in /  0 mm
03:20 11.3 °F /  -11.5 °C 3.6 °F /  -15.8 °C 1012.8 in /  34293.4 hPa WSW 3.2 mph /  5.1 km/h 4.8 mph /  7.7 km/h 59 % 0.0 in /  0 mm
03:30 11.7 °F /  -11.3 °C 3.9 °F /  -15.6 °C 1012.8 in /  34293.4 hPa West 3.2 mph /  5.1 km/h 4.8 mph /  7.7 km/h 59 % 0.0 in /  0 mm
03:40 12.0 °F /  -11.1 °C 4.2 °F /  -15.4 °C 1013.8 in /  34327.3 hPa West 4.8 mph /  7.7 km/h 4.8 mph /  7.7 km/h 59 % 0.0 in /  0 mm
03:50 12.4 °F /  -10.9 °C 4.6 °F /  -15.2 °C 1012.8 in /  34293.4 hPa West 1.6 mph /  2.6 km/h 4.8 mph /  7.7 km/h 59 % 0.0 in /  0 mm
04:00 12.7 °F /  -10.7 °C 4.7 °F /  -15.2 °C 1012.8 in /  34293.4 hPa WSW 4.8 mph /  7.7 km/h 9.7 mph /  15.6 km/h 58 % 0.0 in /  0 mm
10:02 13.0 °F /  -10.6 °C 4.7 °F /  -15.2 °C 1012.8 in /  34293.4 hPa West 9.3 mph /  15 km/h 9.3 mph /  15 km/h 57 % 0.0 in /  0 mm
10:05 13.2 °F /  -10.4 °C 4.8 °F /  -15.1 °C 1012.8 in /  34293.4 hPa WSW 5.6 mph /  9 km/h 5.6 mph /  9 km/h 57 % 0.0 in /  0 mm
10:10 13.5 °F /  -10.3 °C 5.2 °F /  -14.9 °C 1013.8 in /  34327.3 hPa West 7.4 mph /  11.9 km/h 7.4 mph /  11.9 km/h 57 % 0.0 in /  0 mm
10:11 13.6 °F /  -10.2 °C 5.2 °F /  -14.9 °C 1013.8 in /  34327.3 hPa WNW 5.6 mph /  9 km/h 5.6 mph /  9 km/h 57 % 0.0 in /  0 mm
10:16 13.8 °F /  -10.1 °C 5.4 °F /  -14.8 °C 1013.8 in /  34327.3 hPa West 5.6 mph /  9 km/h 5.6 mph /  9 km/h 57 % 0.0 in /  0 mm
10:17 13.8 °F /  -10.1 °C 5.4 °F /  -14.8 °C 1013.8 in /  34327.3 hPa SW 7.9 mph /  12.7 km/h 7.9 mph /  12.7 km/h 57 % 0.0 in /  0 mm
10:22 14.1 °F /  -9.9 °C 5.4 °F /  -14.8 °C 1012.8 in /  34293.4 hPa WNW 5.6 mph /  9 km/h 5.6 mph /  9 km/h 56 % 0.0 in /  0 mm
10:27 14.2 °F /  -9.9 °C 5.6 °F /  -14.7 °C 1012.8 in /  34293.4 hPa WSW 9.3 mph /  15 km/h 9.3 mph /  15 km/h 56 % 0.0 in /  0 mm
10:32 14.3 °F /  -9.8 °C 5.6 °F /  -14.7 °C 1012.8 in /  34293.4 hPa SW 7.4 mph /  11.9 km/h 7.4 mph /  11.9 km/h 56 % 0.0 in /  0 mm
10:35 14.3 °F /  -9.8 °C 5.6 °F /  -14.7 °C 1012.8 in /  34293.4 hPa West 15.1 mph /  24.3 km/h 15.1 mph /  24.3 km/h 56 % 0.0 in /  0 mm
10:41 14.4 °F /  -9.8 °C 5.4 °F /  -14.8 °C 1011.7 in /  34256.2 hPa West 9.5 mph /  15.3 km/h 9.5 mph /  15.3 km/h 55 % 0.0 in /  0 mm
10:42 14.4 °F /  -9.8 °C 5.4 °F /  -14.8 °C 1011.7 in /  34256.2 hPa West 9.3 mph /  15 km/h 9.7 mph /  15.6 km/h 55 % 0.0 in /  0 mm
10:47 14.7 °F /  -9.6 °C 5.7 °F /  -14.6 °C 1011.7 in /  34256.2 hPa West 9.5 mph /  15.3 km/h 9.5 mph /  15.3 km/h 55 % 0.0 in /  0 mm
10:48 14.6 °F /  -9.7 °C 5.7 °F /  -14.6 °C 1011.7 in /  34256.2 hPa West 13.0 mph /  20.9 km/h 13.0 mph /  20.9 km/h 55 % 0.0 in /  0 mm
10:53 14.8 °F /  -9.6 °C 5.6 °F /  -14.7 °C 1011.7 in /  34256.2 hPa WSW 13.0 mph /  20.9 km/h 13.0 mph /  20.9 km/h 54 % 0.0 in /  0 mm
10:55 14.8 °F /  -9.6 °C 5.6 °F /  -14.7 °C 1011.7 in /  34256.2 hPa WSW 18.5 mph /  29.8 km/h 18.5 mph /  29.8 km/h 54 % 0.0 in /  0 mm
10:59 14.9 °F /  -9.5 °C 5.7 °F /  -14.6 °C 1011.7 in /  34256.2 hPa West 9.3 mph /  15 km/h 9.3 mph /  15 km/h 54 % 0.0 in /  0 mm
11:03 15.0 °F /  -9.4 °C 5.8 °F /  -14.6 °C 1011.7 in /  34256.2 hPa West 13.0 mph /  20.9 km/h 13.0 mph /  20.9 km/h 54 % 0.0 in /  0 mm
11:08 15.2 °F /  -9.3 °C 5.7 °F /  -14.6 °C 1011.7 in /  34256.2 hPa WSW 7.4 mph /  11.9 km/h 7.4 mph /  11.9 km/h 53 % 0.0 in /  0 mm
11:10 15.2 °F /  -9.3 °C 5.7 °F /  -14.6 °C 1011.7 in /  34256.2 hPa SW 21.2 mph /  34.1 km/h 21.2 mph /  34.1 km/h 53 % 0.0 in /  0 mm
11:15 15.4 °F /  -9.2 °C 5.9 °F /  -14.5 °C 1011.7 in /  34256.2 hPa NW 9.3 mph /  15 km/h 9.3 mph /  15 km/h 53 % 0.0 in /  0 mm
11:17 15.4 °F /  -9.2 °C 5.9 °F /  -14.5 °C 1011.7 in /  34256.2 hPa ENE 12.6 mph /  20.3 km/h 12.6 mph /  20.3 km/h 53 % 0.0 in /  0 mm
11:22 15.6 °F /  -9.1 °C 6.1 °F /  -14.4 °C 1011.7 in /  34256.2 hPa WSW 5.6 mph /  9 km/h 5.6 mph /  9 km/h 53 % 0.0 in /  0 mm
11:23 15.6 °F /  -9.1 °C 6.1 °F /  -14.4 °C 1011.7 in /  34256.2 hPa SW 8.7 mph /  14 km/h 8.7 mph /  14 km/h 53 % 0.0 in /  0 mm
11:28 15.6 °F /  -9.1 °C 5.8 °F /  -14.6 °C 1011.7 in /  34256.2 hPa WSW 9.3 mph /  15 km/h 9.3 mph /  15 km/h 52 % 0.0 in /  0 mm
11:33 15.6 °F /  -9.1 °C 5.8 °F /  -14.6 °C 1011.7 in /  34256.2 hPa WNW 9.3 mph /  15 km/h 9.3 mph /  15 km/h 52 % 0.0 in /  0 mm
11:35 15.7 °F /  -9.1 °C 5.9 °F /  -14.5 °C 1011.7 in /  34256.2 hPa West 14.8 mph /  23.8 km/h 14.8 mph /  23.8 km/h 52 % 0.0 in /  0 mm
11:41 15.7 °F /  -9.1 °C 5.9 °F /  -14.5 °C 1011.7 in /  34256.2 hPa WSW 11.1 mph /  17.9 km/h 11.1 mph /  17.9 km/h 52 % 0.0 in /  0 mm
11:46 15.8 °F /  -9 °C 5.7 °F /  -14.6 °C 1011.7 in /  34256.2 hPa West 14.8 mph /  23.8 km/h 14.8 mph /  23.8 km/h 51 % 0.0 in /  0 mm
11:47 15.8 °F /  -9 °C 5.7 °F /  -14.6 °C 1011.7 in /  34256.2 hPa WSW 13.0 mph /  20.9 km/h 13.0 mph /  20.9 km/h 51 % 0.0 in /  0 mm
11:50 15.9 °F /  -8.9 °C 5.8 °F /  -14.6 °C 1011.7 in /  34256.2 hPa WSW 9.7 mph /  15.6 km/h 9.7 mph /  15.6 km/h 51 % 0.0 in /  0 mm
11:55 15.9 °F /  -8.9 °C 5.8 °F /  -14.6 °C 1011.7 in /  34256.2 hPa SW 13.0 mph /  20.9 km/h 13.0 mph /  20.9 km/h 51 % 0.0 in /  0 mm
11:58 16.0 °F /  -8.9 °C 5.8 °F /  -14.6 °C 1011.7 in /  34256.2 hPa SW 9.5 mph /  15.3 km/h 9.5 mph /  15.3 km/h 51 % 0.0 in /  0 mm
12:03 15.9 °F /  -8.9 °C 5.8 °F /  -14.6 °C 1011.7 in /  34256.2 hPa WNW 14.8 mph /  23.8 km/h 14.8 mph /  23.8 km/h 51 % 0.0 in /  0 mm
12:04 15.9 °F /  -8.9 °C 5.8 °F /  -14.6 °C 1011.7 in /  34256.2 hPa West 11.1 mph /  17.9 km/h 11.1 mph /  17.9 km/h 51 % 0.0 in /  0 mm
12:09 15.9 °F /  -8.9 °C 5.8 °F /  -14.6 °C 1010.7 in /  34222.3 hPa West 13.0 mph /  20.9 km/h 13.0 mph /  20.9 km/h 51 % 0.0 in /  0 mm
12:12 16.0 °F /  -8.9 °C 5.8 °F /  -14.6 °C 1010.7 in /  34222.3 hPa East 5.6 mph /  9 km/h 6.1 mph /  9.8 km/h 51 % 0.0 in /  0 mm
12:16 16.0 °F /  -8.9 °C 5.8 °F /  -14.6 °C 1010.7 in /  34222.3 hPa SW 14.8 mph /  23.8 km/h 14.8 mph /  23.8 km/h 51 % 0.0 in /  0 mm
12:18 16.0 °F /  -8.9 °C 5.8 °F /  -14.6 °C 1010.7 in /  34222.3 hPa West 11.9 mph /  19.2 km/h 11.9 mph /  19.2 km/h 51 % 0.0 in /  0 mm
12:19 16.1 °F /  -8.8 °C 5.9 °F /  -14.5 °C 1010.7 in /  34222.3 hPa WSW 9.3 mph /  15 km/h 9.3 mph /  15 km/h 51 % 0.0 in /  0 mm
12:24 16.1 °F /  -8.8 °C 5.7 °F /  -14.6 °C 1010.0 in /  34198.6 hPa WSW 13.0 mph /  20.9 km/h 13.0 mph /  20.9 km/h 50 % 0.0 in /  0 mm
12:29 16.3 °F /  -8.7 °C 5.8 °F /  -14.6 °C 1010.0 in /  34198.6 hPa West 16.7 mph /  26.9 km/h 16.7 mph /  26.9 km/h 50 % 0.0 in /  0 mm
12:34 16.4 °F /  -8.7 °C 5.9 °F /  -14.5 °C 1010.0 in /  34198.6 hPa WNW 16.7 mph /  26.9 km/h 16.7 mph /  26.9 km/h 50 % 0.0 in /  0 mm
12:36 16.4 °F /  -8.7 °C 5.9 °F /  -14.5 °C 1010.0 in /  34198.6 hPa WNW 14.8 mph /  23.8 km/h 14.8 mph /  23.8 km/h 50 % 0.0 in /  0 mm
12:38 16.6 °F /  -8.6 °C 6.1 °F /  -14.4 °C 1010.0 in /  34198.6 hPa WNW 19.5 mph /  31.4 km/h 19.5 mph /  31.4 km/h 50 % 0.0 in /  0 mm
12:43 16.4 °F /  -8.7 °C 5.7 °F /  -14.6 °C 1010.0 in /  34198.6 hPa WSW 22.2 mph /  35.7 km/h 22.2 mph /  35.7 km/h 49 % 0.0 in /  0 mm
12:48 16.5 °F /  -8.6 °C 5.7 °F /  -14.6 °C 1010.0 in /  34198.6 hPa WNW 11.1 mph /  17.9 km/h 11.1 mph /  17.9 km/h 49 % 0.0 in /  0 mm
12:49 16.4 °F /  -8.7 °C 5.7 °F /  -14.6 °C 1010.0 in /  34198.6 hPa NW 16.7 mph /  26.9 km/h 16.7 mph /  26.9 km/h 49 % 0.0 in /  0 mm
12:54 16.4 °F /  -8.7 °C 5.3 °F /  -14.8 °C 1010.0 in /  34198.6 hPa WNW 16.7 mph /  26.9 km/h 16.7 mph /  26.9 km/h 48 % 0.0 in /  0 mm
12:55 16.5 °F /  -8.6 °C 5.7 °F /  -14.6 °C 1010.0 in /  34198.6 hPa WSW 14.8 mph /  23.8 km/h 14.8 mph /  23.8 km/h 49 % 0.0 in /  0 mm
13:00 16.6 °F /  -8.6 °C 5.6 °F /  -14.7 °C 1010.0 in /  34198.6 hPa WSW 9.7 mph /  15.6 km/h 9.7 mph /  15.6 km/h 48 % 0.0 in /  0 mm
13:01 16.6 °F /  -8.6 °C 5.6 °F /  -14.7 °C 1010.0 in /  34198.6 hPa SW 13.0 mph /  20.9 km/h 13.0 mph /  20.9 km/h 48 % 0.0 in /  0 mm
13:05 16.7 °F /  -8.5 °C 5.6 °F /  -14.7 °C 1010.0 in /  34198.6 hPa WNW 9.7 mph /  15.6 km/h 9.7 mph /  15.6 km/h 48 % 0.0 in /  0 mm
13:07 16.8 °F /  -8.4 °C 5.7 °F /  -14.6 °C 1010.0 in /  34198.6 hPa WNW 9.3 mph /  15 km/h 9.3 mph /  15 km/h 48 % 0.0 in /  0 mm
13:12 17.0 °F /  -8.3 °C 5.6 °F /  -14.7 °C 1010.0 in /  34198.6 hPa SW 14.8 mph /  23.8 km/h 14.8 mph /  23.8 km/h 47 % 0.0 in /  0 mm
13:17 17.0 °F /  -8.3 °C 5.6 °F /  -14.7 °C 1010.0 in /  34198.6 hPa WSW 16.1 mph /  25.9 km/h 16.1 mph /  25.9 km/h 47 % 0.0 in /  0 mm
13:18 16.9 °F /  -8.4 °C 5.8 °F /  -14.6 °C 1010.0 in /  34198.6 hPa NW 16.7 mph /  26.9 km/h 16.7 mph /  26.9 km/h 48 % 0.0 in /  0 mm
13:20 16.9 °F /  -8.4 °C 5.8 °F /  -14.6 °C 1010.0 in /  34198.6 hPa West 16.7 mph /  26.9 km/h 16.7 mph /  26.9 km/h 48 % 0.0 in /  0 mm
13:25 17.0 °F /  -8.3 °C 5.6 °F /  -14.7 °C 1009.0 in /  34164.7 hPa SSW 13.0 mph /  20.9 km/h 13.0 mph /  20.9 km/h 47 % 0.0 in /  0 mm
13:28 17.0 °F /  -8.3 °C 5.6 °F /  -14.7 °C 1009.0 in /  34164.7 hPa WSW 9.3 mph /  15 km/h 9.3 mph /  15 km/h 47 % 0.0 in /  0 mm
13:33 17.4 °F /  -8.1 °C 5.9 °F /  -14.5 °C 1009.0 in /  34164.7 hPa SW 11.1 mph /  17.9 km/h 11.1 mph /  17.9 km/h 47 % 0.0 in /  0 mm
13:34 17.4 °F /  -8.1 °C 5.9 °F /  -14.5 °C 1009.0 in /  34164.7 hPa WNW 9.3 mph /  15 km/h 9.3 mph /  15 km/h 47 % 0.0 in /  0 mm
13:38 17.4 °F /  -8.1 °C 5.7 °F /  -14.6 °C 1008.0 in /  34130.9 hPa SW 13.0 mph /  20.9 km/h 13.0 mph /  20.9 km/h 46 % 0.0 in /  0 mm
13:40 17.3 °F /  -8.2 °C 5.6 °F /  -14.7 °C 1008.0 in /  34130.9 hPa West 14.8 mph /  23.8 km/h 14.8 mph /  23.8 km/h 46 % 0.0 in /  0 mm
13:43 17.3 °F /  -8.2 °C 5.6 °F /  -14.7 °C 1008.0 in /  34130.9 hPa SW 11.1 mph /  17.9 km/h 11.1 mph /  17.9 km/h 46 % 0.0 in /  0 mm
13:48 17.3 °F /  -8.2 °C 5.6 °F /  -14.7 °C 1008.0 in /  34130.9 hPa WNW 14.8 mph /  23.8 km/h 14.8 mph /  23.8 km/h 46 % 0.0 in /  0 mm
13:49 17.4 °F /  -8.1 °C 5.7 °F /  -14.6 °C 1008.0 in /  34130.9 hPa WNW 7.4 mph /  11.9 km/h 7.4 mph /  11.9 km/h 46 % 0.0 in /  0 mm
13:50 17.3 °F /  -8.2 °C 5.6 °F /  -14.7 °C 1008.0 in /  34130.9 hPa NW 7.9 mph /  12.7 km/h 8.7 mph /  14 km/h 46 % 0.0 in /  0 mm
13:54 17.2 °F /  -8.2 °C 5.2 °F /  -14.9 °C 1009.0 in /  34164.7 hPa SSW 14.8 mph /  23.8 km/h 14.8 mph /  23.8 km/h 45 % 0.0 in /  0 mm
13:59 17.3 °F /  -8.2 °C 5.6 °F /  -14.7 °C 1009.0 in /  34164.7 hPa WSW 7.4 mph /  11.9 km/h 7.4 mph /  11.9 km/h 46 % 0.0 in /  0 mm
14:03 17.6 °F /  -8 °C 5.8 °F /  -14.6 °C 1009.0 in /  34164.7 hPa WNW 5.6 mph /  9 km/h 5.6 mph /  9 km/h 46 % 0.0 in /  0 mm
14:05 17.6 °F /  -8 °C 5.8 °F /  -14.6 °C 1009.0 in /  34164.7 hPa WSW 4.8 mph /  7.7 km/h 14.5 mph /  23.3 km/h 46 % 0.0 in /  0 mm
14:10 17.6 °F /  -8 °C 5.5 °F /  -14.7 °C 1008.0 in /  34130.9 hPa West 11.4 mph /  18.3 km/h 11.4 mph /  18.3 km/h 45 % 0.0 in /  0 mm
14:11 17.6 °F /  -8 °C 5.8 °F /  -14.6 °C 1008.0 in /  34130.9 hPa WNW 13.0 mph /  20.9 km/h 13.0 mph /  20.9 km/h 46 % 0.0 in /  0 mm
14:16 17.6 °F /  -8 °C 5.5 °F /  -14.7 °C 1008.0 in /  34130.9 hPa SSW 9.3 mph /  15 km/h 9.3 mph /  15 km/h 45 % 0.0 in /  0 mm
14:21 17.5 °F /  -8.1 °C 5.4 °F /  -14.8 °C 1008.0 in /  34130.9 hPa West 9.3 mph /  15 km/h 9.3 mph /  15 km/h 45 % 0.0 in /  0 mm
14:23 17.6 °F /  -8 °C 5.5 °F /  -14.7 °C 1008.0 in /  34130.9 hPa South 13.0 mph /  20.9 km/h 13.0 mph /  20.9 km/h 45 % 0.0 in /  0 mm
14:28 17.5 °F /  -8.1 °C 5.4 °F /  -14.8 °C 1008.0 in /  34130.9 hPa West 9.3 mph /  15 km/h 9.3 mph /  15 km/h 45 % 0.0 in /  0 mm
14:32 17.5 °F /  -8.1 °C 5.1 °F /  -14.9 °C 1008.0 in /  34130.9 hPa WNW 7.4 mph /  11.9 km/h 8.7 mph /  14 km/h 44 % 0.0 in /  0 mm
14:37 17.6 °F /  -8 °C 5.2 °F /  -14.9 °C 1008.0 in /  34130.9 hPa WSW 11.1 mph /  17.9 km/h 11.1 mph /  17.9 km/h 44 % 0.0 in /  0 mm
14:38 17.6 °F /  -8 °C 5.2 °F /  -14.9 °C 1008.0 in /  34130.9 hPa West 10.0 mph /  16.1 km/h 10.0 mph /  16.1 km/h 44 % 0.0 in /  0 mm
14:43 17.6 °F /  -8 °C 5.2 °F /  -14.9 °C 1008.0 in /  34130.9 hPa WSW 16.7 mph /  26.9 km/h 16.7 mph /  26.9 km/h 44 % 0.0 in /  0 mm
14:44 17.6 °F /  -8 °C 5.2 °F /  -14.9 °C 1008.0 in /  34130.9 hPa West 16.7 mph /  26.9 km/h 16.7 mph /  26.9 km/h 44 % 0.0 in /  0 mm
14:49 17.4 °F /  -8.1 °C 5.0 °F /  -15 °C 1008.0 in /  34130.9 hPa WNW 16.7 mph /  26.9 km/h 16.7 mph /  26.9 km/h 44 % 0.0 in /  0 mm
14:51 17.4 °F /  -8.1 °C 4.7 °F /  -15.2 °C 1008.0 in /  34130.9 hPa WNW 20.4 mph /  32.8 km/h 20.4 mph /  32.8 km/h 43 % 0.0 in /  0 mm
14:56 17.4 °F /  -8.1 °C 5.0 °F /  -15 °C 1008.0 in /  34130.9 hPa West 13.0 mph /  20.9 km/h 13.0 mph /  20.9 km/h 44 % 0.0 in /  0 mm
14:59 17.6 °F /  -8 °C 5.2 °F /  -14.9 °C 1008.0 in /  34130.9 hPa West 13.0 mph /  20.9 km/h 13.0 mph /  20.9 km/h 44 % 0.0 in /  0 mm
15:03 17.5 °F /  -8.1 °C 5.1 °F /  -14.9 °C 1008.0 in /  34130.9 hPa WSW 9.3 mph /  15 km/h 9.3 mph /  15 km/h 44 % 0.0 in /  0 mm
15:08 17.4 °F /  -8.1 °C 4.7 °F /  -15.2 °C 1008.0 in /  34130.9 hPa West 14.8 mph /  23.8 km/h 14.8 mph /  23.8 km/h 43 % 0.0 in /  0 mm
15:13 17.5 °F /  -8.1 °C 4.8 °F /  -15.1 °C 1008.0 in /  34130.9 hPa WSW 11.1 mph /  17.9 km/h 11.1 mph /  17.9 km/h 43 % 0.0 in /  0 mm
15:14 17.5 °F /  -8.1 °C 4.8 °F /  -15.1 °C 1008.0 in /  34130.9 hPa WSW 13.0 mph /  20.9 km/h 13.0 mph /  20.9 km/h 43 % 0.0 in /  0 mm
15:19 17.5 °F /  -8.1 °C 4.8 °F /  -15.1 °C 1008.0 in /  34130.9 hPa WSW 16.7 mph /  26.9 km/h 16.7 mph /  26.9 km/h 43 % 0.0 in /  0 mm
15:24 17.5 °F /  -8.1 °C 4.8 °F /  -15.1 °C 1008.0 in /  34130.9 hPa WSW 9.3 mph /  15 km/h 9.3 mph /  15 km/h 43 % 0.0 in /  0 mm
15:26 17.5 °F /  -8.1 °C 4.8 °F /  -15.1 °C 1008.0 in /  34130.9 hPa WNW 9.3 mph /  15 km/h 9.3 mph /  15 km/h 43 % 0.0 in /  0 mm
15:31 17.6 °F /  -8 °C 4.9 °F /  -15.1 °C 1008.0 in /  34130.9 hPa WSW 7.4 mph /  11.9 km/h 7.4 mph /  11.9 km/h 43 % 0.0 in /  0 mm
15:33 17.6 °F /  -8 °C 4.9 °F /  -15.1 °C 1008.0 in /  34130.9 hPa West 11.1 mph /  17.9 km/h 11.1 mph /  17.9 km/h 43 % 0.0 in /  0 mm
15:38 17.6 °F /  -8 °C 4.9 °F /  -15.1 °C 1008.0 in /  34130.9 hPa SSW 7.4 mph /  11.9 km/h 7.4 mph /  11.9 km/h 43 % 0.0 in /  0 mm
15:40 17.7 °F /  -7.9 °C 4.9 °F /  -15.1 °C 1008.0 in /  34130.9 hPa West 13.0 mph /  20.9 km/h 13.0 mph /  20.9 km/h 43 % 0.0 in /  0 mm
15:43 17.6 °F /  -8 °C 4.9 °F /  -15.1 °C 1008.0 in /  34130.9 hPa NW 13.0 mph /  20.9 km/h 13.0 mph /  20.9 km/h 43 % 0.0 in /  0 mm
15:48 17.6 °F /  -8 °C 4.5 °F /  -15.3 °C 1008.0 in /  34130.9 hPa SW 5.6 mph /  9 km/h 6.4 mph /  10.3 km/h 42 % 0.0 in /  0 mm
15:49 17.7 °F /  -7.9 °C 4.9 °F /  -15.1 °C 1008.0 in /  34130.9 hPa WSW 7.9 mph /  12.7 km/h 7.9 mph /  12.7 km/h 43 % 0.0 in /  0 mm
15:54 17.8 °F /  -7.9 °C 4.7 °F /  -15.2 °C 1007.0 in /  34097 hPa West 9.3 mph /  15 km/h 9.3 mph /  15 km/h 42 % 0.0 in /  0 mm
15:59 17.6 °F /  -8 °C 4.5 °F /  -15.3 °C 1007.0 in /  34097 hPa WSW 14.8 mph /  23.8 km/h 14.8 mph /  23.8 km/h 42 % 0.0 in /  0 mm
16:00 17.6 °F /  -8 °C 4.5 °F /  -15.3 °C 1007.0 in /  34097 hPa WSW 14.8 mph /  23.8 km/h 14.8 mph /  23.8 km/h 42 % 0.0 in /  0 mm
16:05 17.3 °F /  -8.2 °C 3.9 °F /  -15.6 °C 1007.0 in /  34097 hPa WSW 13.0 mph /  20.9 km/h 13.0 mph /  20.9 km/h 41 % 0.0 in /  0 mm
16:10 17.4 °F /  -8.1 °C 4.3 °F /  -15.4 °C 1007.0 in /  34097 hPa WSW 11.4 mph /  18.3 km/h 11.4 mph /  18.3 km/h 42 % 0.0 in /  0 mm
16:15 17.4 °F /  -8.1 °C 4.3 °F /  -15.4 °C 1007.0 in /  34097 hPa SW 9.3 mph /  15 km/h 9.3 mph /  15 km/h 42 % 0.0 in /  0 mm
16:17 17.5 °F /  -8.1 °C 4.4 °F /  -15.3 °C 1007.0 in /  34097 hPa WSW 4.2 mph /  6.8 km/h 4.2 mph /  6.8 km/h 42 % 0.0 in /  0 mm
16:18 17.5 °F /  -8.1 °C 4.4 °F /  -15.3 °C 1007.0 in /  34097 hPa WSW 12.6 mph /  20.3 km/h 12.6 mph /  20.3 km/h 42 % 0.0 in /  0 mm
16:23 17.3 °F /  -8.2 °C 4.3 °F /  -15.4 °C 1008.0 in /  34130.9 hPa West 5.6 mph /  9 km/h 5.6 mph /  9 km/h 42 % 0.0 in /  0 mm
16:28 17.4 °F /  -8.1 °C 4.3 °F /  -15.4 °C 1008.0 in /  34130.9 hPa SW 7.4 mph /  11.9 km/h 7.4 mph /  11.9 km/h 42 % 0.0 in /  0 mm
16:33 17.3 °F /  -8.2 °C 4.3 °F /  -15.4 °C 1008.0 in /  34130.9 hPa WSW 9.3 mph /  15 km/h 9.3 mph /  15 km/h 42 % 0.0 in /  0 mm
16:35 17.2 °F /  -8.2 °C 4.2 °F /  -15.4 °C 1008.0 in /  34130.9 hPa WSW 9.3 mph /  15 km/h 9.5 mph /  15.3 km/h 42 % 0.0 in /  0 mm
16:40 17.0 °F /  -8.3 °C 4.0 °F /  -15.6 °C 1008.0 in /  34130.9 hPa WNW 9.3 mph /  15 km/h 9.3 mph /  15 km/h 42 % 0.0 in /  0 mm
16:43 17.0 °F /  -8.3 °C 4.0 °F /  -15.6 °C 1008.0 in /  34130.9 hPa West 7.4 mph /  11.9 km/h 7.4 mph /  11.9 km/h 42 % 0.0 in /  0 mm
16:48 16.9 °F /  -8.4 °C 3.9 °F /  -15.6 °C 1008.0 in /  34130.9 hPa WSW 9.3 mph /  15 km/h 9.3 mph /  15 km/h 42 % 0.0 in /  0 mm
16:53 16.8 °F /  -8.4 °C 3.8 °F /  -15.7 °C 1008.0 in /  34130.9 hPa WSW 13.0 mph /  20.9 km/h 13.0 mph /  20.9 km/h 42 % 0.0 in /  0 mm
16:58 16.7 °F /  -8.5 °C 3.7 °F /  -15.7 °C 1008.0 in /  34130.9 hPa WSW 5.6 mph /  9 km/h 5.6 mph /  9 km/h 42 % 0.0 in /  0 mm
17:03 16.5 °F /  -8.6 °C 3.6 °F /  -15.8 °C 1008.0 in /  34130.9 hPa WNW 9.3 mph /  15 km/h 9.3 mph /  15 km/h 42 % 0.0 in /  0 mm
17:05 16.4 °F /  -8.7 °C 3.4 °F /  -15.9 °C 1008.0 in /  34130.9 hPa SW 9.3 mph /  15 km/h 9.3 mph /  15 km/h 42 % 0.0 in /  0 mm
17:10 16.3 °F /  -8.7 °C 3.7 °F /  -15.7 °C 1007.0 in /  34097 hPa WNW 7.4 mph /  11.9 km/h 7.4 mph /  11.9 km/h 43 % 0.0 in /  0 mm
17:13 16.2 °F /  -8.8 °C 3.3 °F /  -15.9 °C 1007.0 in /  34097 hPa WSW 9.3 mph /  15 km/h 9.3 mph /  15 km/h 42 % 0.0 in /  0 mm
17:18 16.1 °F /  -8.8 °C 3.2 °F /  -16 °C 1007.0 in /  34097 hPa WSW 7.4 mph /  11.9 km/h 7.4 mph /  11.9 km/h 42 % 0.0 in /  0 mm
17:23 15.8 °F /  -9 °C 2.9 °F /  -16.2 °C 1007.0 in /  34097 hPa SW 7.9 mph /  12.7 km/h 7.9 mph /  12.7 km/h 42 % 0.0 in /  0 mm
17:28 15.6 °F /  -9.1 °C 2.7 °F /  -16.3 °C 1007.0 in /  34097 hPa SW 11.1 mph /  17.9 km/h 11.1 mph /  17.9 km/h 42 % 0.0 in /  0 mm
17:34 15.3 °F /  -9.3 °C 2.4 °F /  -16.4 °C 1007.0 in /  34097 hPa West 7.4 mph /  11.9 km/h 7.4 mph /  11.9 km/h 42 % 0.0 in /  0 mm
17:37 15.3 °F /  -9.3 °C 2.4 °F /  -16.4 °C 1007.0 in /  34097 hPa WSW 5.6 mph /  9 km/h 5.6 mph /  9 km/h 42 % 0.0 in /  0 mm
17:42 15.1 °F /  -9.4 °C 2.3 °F /  -16.5 °C 1007.0 in /  34097 hPa SSW 7.4 mph /  11.9 km/h 7.4 mph /  11.9 km/h 42 % 0.0 in /  0 mm
17:44 15.1 °F /  -9.4 °C 2.3 °F /  -16.5 °C 1007.0 in /  34097 hPa West 9.0 mph /  14.5 km/h 9.0 mph /  14.5 km/h 42 % 0.0 in /  0 mm
17:49 14.9 °F /  -9.5 °C 2.4 °F /  -16.4 °C 1007.0 in /  34097 hPa WSW 7.4 mph /  11.9 km/h 7.4 mph /  11.9 km/h 43 % 0.0 in /  0 mm
17:51 14.8 °F /  -9.6 °C 2.3 °F /  -16.5 °C 1008.0 in /  34130.9 hPa WSW 9.3 mph /  15 km/h 9.3 mph /  15 km/h 43 % 0.0 in /  0 mm
17:53 14.8 °F /  -9.6 °C 2.3 °F /  -16.5 °C 1008.0 in /  34130.9 hPa West 9.3 mph /  15 km/h 9.3 mph /  15 km/h 43 % 0.0 in /  0 mm
17:58 14.7 °F /  -9.6 °C 2.2 °F /  -16.6 °C 1008.0 in /  34130.9 hPa WSW 7.4 mph /  11.9 km/h 7.4 mph /  11.9 km/h 43 % 0.0 in /  0 mm
17:59 14.7 °F /  -9.6 °C 2.2 °F /  -16.6 °C 1008.0 in /  34130.9 hPa WSW 10.0 mph /  16.1 km/h 10.0 mph /  16.1 km/h 43 % 0.0 in /  0 mm
18:04 14.5 °F /  -9.7 °C 2.1 °F /  -16.6 °C 1008.0 in /  34130.9 hPa WSW 5.6 mph /  9 km/h 5.6 mph /  9 km/h 43 % 0.0 in /  0 mm
18:07 14.3 °F /  -9.8 °C 1.9 °F /  -16.7 °C 1007.0 in /  34097 hPa SW 9.3 mph /  15 km/h 9.3 mph /  15 km/h 43 % 0.0 in /  0 mm
18:12 14.3 °F /  -9.8 °C 1.9 °F /  -16.7 °C 1007.0 in /  34097 hPa West 9.3 mph /  15 km/h 9.3 mph /  15 km/h 43 % 0.0 in /  0 mm
18:13 14.3 °F /  -9.8 °C 1.9 °F /  -16.7 °C 1007.0 in /  34097 hPa WSW 7.4 mph /  11.9 km/h 7.4 mph /  11.9 km/h 43 % 0.0 in /  0 mm
18:18 14.2 °F /  -9.9 °C 1.8 °F /  -16.8 °C 1007.0 in /  34097 hPa WSW 7.6 mph /  12.2 km/h 7.6 mph /  12.2 km/h 43 % 0.0 in /  0 mm
18:23 14.1 °F /  -9.9 °C 1.7 °F /  -16.8 °C 1007.0 in /  34097 hPa WSW 7.4 mph /  11.9 km/h 7.4 mph /  11.9 km/h 43 % 0.0 in /  0 mm
18:26 14.1 °F /  -9.9 °C 1.7 °F /  -16.8 °C 1007.0 in /  34097 hPa West 7.4 mph /  11.9 km/h 7.4 mph /  11.9 km/h 43 % 0.0 in /  0 mm
18:33 14.0 °F /  -10 °C 1.9 °F /  -16.7 °C 1007.0 in /  34097 hPa West 6.9 mph /  11.1 km/h 6.9 mph /  11.1 km/h 44 % 0.0 in /  0 mm
18:36 14.0 °F /  -10 °C 1.9 °F /  -16.7 °C 1008.0 in /  34130.9 hPa WSW 7.4 mph /  11.9 km/h 7.4 mph /  11.9 km/h 44 % 0.0 in /  0 mm
18:40 14.0 °F /  -10 °C 1.9 °F /  -16.7 °C 1008.0 in /  34130.9 hPa WSW 5.6 mph /  9 km/h 5.6 mph /  9 km/h 44 % 0.0 in /  0 mm
18:43 14.0 °F /  -10 °C 1.9 °F /  -16.7 °C 1008.0 in /  34130.9 hPa West 5.6 mph /  9 km/h 5.6 mph /  9 km/h 44 % 0.0 in /  0 mm
18:45 14.0 °F /  -10 °C 1.9 °F /  -16.7 °C 1008.0 in /  34130.9 hPa West 3.7 mph /  6 km/h 3.7 mph /  6 km/h 44 % 0.0 in /  0 mm
18:50 13.9 °F /  -10.1 °C 1.8 °F /  -16.8 °C 1008.0 in /  34130.9 hPa West 3.9 mph /  6.3 km/h 3.9 mph /  6.3 km/h 44 % 0.0 in /  0 mm
18:55 13.8 °F /  -10.1 °C 1.7 °F /  -16.8 °C 1008.0 in /  34130.9 hPa SW 3.7 mph /  6 km/h 3.7 mph /  6 km/h 44 % 0.0 in /  0 mm
19:00 13.7 °F /  -10.2 °C 1.7 °F /  -16.8 °C 1008.0 in /  34130.9 hPa ESE 1.9 mph /  3.1 km/h   44 % 0.0 in /  0 mm
19:05 13.5 °F /  -10.3 °C 1.4 °F /  -17 °C 1008.0 in /  34130.9 hPa ESE 2.6 mph /  4.2 km/h 2.6 mph /  4.2 km/h 44 % 0.0 in /  0 mm
19:11 13.4 °F /  -10.3 °C 1.4 °F /  -17 °C 1008.0 in /  34130.9 hPa ESE 4.7 mph /  7.6 km/h 4.7 mph /  7.6 km/h 44 % 0.0 in /  0 mm
19:12 13.3 °F /  -10.4 °C 1.3 °F /  -17.1 °C 1008.0 in /  34130.9 hPa ESE 3.7 mph /  6 km/h 3.7 mph /  6 km/h 44 % 0.0 in /  0 mm
19:13 13.3 °F /  -10.4 °C 1.3 °F /  -17.1 °C 1008.0 in /  34130.9 hPa ESE 3.7 mph /  6 km/h 3.7 mph /  6 km/h 44 % 0.0 in /  0 mm
19:18 13.1 °F /  -10.5 °C 1.1 °F /  -17.2 °C 1008.0 in /  34130.9 hPa Calm     44 % 0.0 in /  0 mm
19:23 12.9 °F /  -10.6 °C 0.9 °F /  -17.3 °C 1008.0 in /  34130.9 hPa Calm     44 % 0.0 in /  0 mm
19:25 12.8 °F /  -10.7 °C 0.8 °F /  -17.3 °C 1008.0 in /  34130.9 hPa SW 2.3 mph /  3.7 km/h 2.3 mph /  3.7 km/h 44 % 0.0 in /  0 mm
19:30 12.7 °F /  -10.7 °C 0.7 °F /  -17.4 °C 1008.0 in /  34130.9 hPa SW 2.3 mph /  3.7 km/h 2.3 mph /  3.7 km/h 44 % 0.0 in /  0 mm
19:31 12.7 °F /  -10.7 °C 0.7 °F /  -17.4 °C 1008.0 in /  34130.9 hPa SW 3.7 mph /  6 km/h 3.7 mph /  6 km/h 44 % 0.0 in /  0 mm
19:33 12.7 °F /  -10.7 °C 1.1 °F /  -17.2 °C 1008.0 in /  34130.9 hPa Calm     45 % 0.0 in /  0 mm
19:38 12.6 °F /  -10.8 °C 0.9 °F /  -17.3 °C 1008.0 in /  34130.9 hPa WSW 3.7 mph /  6 km/h 3.7 mph /  6 km/h 45 % 0.0 in /  0 mm
19:40 7.2 °F /  -13.8 °C -1.0 °F /  -18.3 °C 1006.0 in /  34063.2 hPa ENE 1.6 mph /  2.6 km/h 3.2 mph /  5.1 km/h 56 % 0.0 in /  0 mm
19:43 12.6 °F /  -10.8 °C 0.9 °F /  -17.3 °C 1008.0 in /  34130.9 hPa WSW 3.9 mph /  6.3 km/h 3.9 mph /  6.3 km/h 45 % 0.0 in /  0 mm
19:48 12.7 °F /  -10.7 °C 1.1 °F /  -17.2 °C 1008.0 in /  34130.9 hPa West 3.7 mph /  6 km/h 3.7 mph /  6 km/h 45 % 0.0 in /  0 mm
19:52 12.6 °F /  -10.8 °C 0.9 °F /  -17.3 °C 1008.0 in /  34130.9 hPa NW 3.7 mph /  6 km/h 3.7 mph /  6 km/h 45 % 0.0 in /  0 mm
19:55 12.6 °F /  -10.8 °C 0.9 °F /  -17.3 °C 1008.0 in /  34130.9 hPa West 3.7 mph /  6 km/h 3.7 mph /  6 km/h 45 % 0.0 in /  0 mm
20:00 12.6 °F /  -10.8 °C 0.9 °F /  -17.3 °C 1008.0 in /  34130.9 hPa SE 3.7 mph /  6 km/h   45 % 0.0 in /  0 mm
20:01 12.6 °F /  -10.8 °C 0.9 °F /  -17.3 °C 1008.0 in /  34130.9 hPa South 1.9 mph /  3.1 km/h   45 % 0.0 in /  0 mm
20:06 12.4 °F /  -10.9 °C 1.1 °F /  -17.2 °C 1008.0 in /  34130.9 hPa South 1.9 mph /  3.1 km/h   46 % 0.0 in /  0 mm
20:07 12.3 °F /  -10.9 °C 1.0 °F /  -17.2 °C 1008.0 in /  34130.9 hPa South 1.9 mph /  3.1 km/h 1.9 mph /  3.1 km/h 46 % 0.0 in /  0 mm
20:11 12.1 °F /  -11.1 °C 0.8 °F /  -17.3 °C 1008.0 in /  34130.9 hPa South 1.9 mph /  3.1 km/h 1.9 mph /  3.1 km/h 46 % 0.0 in /  0 mm
20:16 12.0 °F /  -11.1 °C 0.7 °F /  -17.4 °C 1008.0 in /  34130.9 hPa SSW 1.9 mph /  3.1 km/h 1.9 mph /  3.1 km/h 46 % 0.0 in /  0 mm
20:18 11.9 °F /  -11.2 °C 0.6 °F /  -17.4 °C 1008.0 in /  34130.9 hPa SSW 1.9 mph /  3.1 km/h 1.9 mph /  3.1 km/h 46 % 0.0 in /  0 mm
20:23 11.9 °F /  -11.2 °C 0.6 °F /  -17.4 °C 1008.0 in /  34130.9 hPa Calm     46 % 0.0 in /  0 mm
20:28 11.7 °F /  -11.3 °C 0.4 °F /  -17.6 °C 1008.0 in /  34130.9 hPa SW 3.7 mph /  6 km/h 3.7 mph /  6 km/h 46 % 0.0 in /  0 mm
20:30 6.6 °F /  -14.1 °C -1.1 °F /  -18.4 °C 1006.0 in /  34063.2 hPa SE 1.6 mph /  2.6 km/h 3.2 mph /  5.1 km/h 58 % 0.0 in /  0 mm
20:31 11.5 °F /  -11.4 °C 0.3 °F /  -17.6 °C 1008.0 in /  34130.9 hPa WSW 3.7 mph /  6 km/h 3.7 mph /  6 km/h 46 % 0.0 in /  0 mm
20:34 11.5 °F /  -11.4 °C 0.3 °F /  -17.6 °C 1008.0 in /  34130.9 hPa WSW 3.7 mph /  6 km/h 3.7 mph /  6 km/h 46 % 0.0 in /  0 mm
20:39 11.6 °F /  -11.3 °C 0.3 °F /  -17.6 °C 1008.0 in /  34130.9 hPa WSW 3.7 mph /  6 km/h 3.7 mph /  6 km/h 46 % 0.0 in /  0 mm
20:45 11.6 °F /  -11.3 °C 0.7 °F /  -17.4 °C 1008.0 in /  34130.9 hPa WSW 1.6 mph /  2.6 km/h 3.2 mph /  5.1 km/h 47 % 0.0 in /  0 mm
20:46 11.5 °F /  -11.4 °C 0.6 °F /  -17.4 °C 1008.0 in /  34130.9 hPa SW 3.7 mph /  6 km/h 3.7 mph /  6 km/h 47 % 0.0 in /  0 mm
20:50 6.4 °F /  -14.2 °C -1.3 °F /  -18.5 °C 1006.0 in /  34063.2 hPa SW 1.6 mph /  2.6 km/h 3.2 mph /  5.1 km/h 58 % 0.0 in /  0 mm
20:51 11.3 °F /  -11.5 °C 0.4 °F /  -17.6 °C 1008.0 in /  34130.9 hPa SW 2.6 mph /  4.2 km/h   47 % 0.0 in /  0 mm
20:56 11.1 °F /  -11.6 °C 0.2 °F /  -17.7 °C 1008.0 in /  34130.9 hPa SW 1.9 mph /  3.1 km/h 1.9 mph /  3.1 km/h 47 % 0.0 in /  0 mm
21:00 6.4 °F /  -14.2 °C -1.1 °F /  -18.4 °C 1006.0 in /  34063.2 hPa WSW 1.6 mph /  2.6 km/h 3.2 mph /  5.1 km/h 59 % 0.0 in /  0 mm
21:01 11.0 °F /  -11.7 °C 0.1 °F /  -17.7 °C 1008.0 in /  34130.9 hPa SW 2.3 mph /  3.7 km/h   47 % 0.0 in /  0 mm
21:07 11.1 °F /  -11.6 °C 0.5 °F /  -17.5 °C 1008.0 in /  34130.9 hPa SW 1.9 mph /  3.1 km/h 2.3 mph /  3.7 km/h 48 % 0.0 in /  0 mm
21:08 11.0 °F /  -11.7 °C 0.4 °F /  -17.6 °C 1008.0 in /  34130.9 hPa SW 1.9 mph /  3.1 km/h 1.9 mph /  3.1 km/h 48 % 0.0 in /  0 mm
21:13 10.9 °F /  -11.7 °C 0.3 °F /  -17.6 °C 1008.0 in /  34130.9 hPa SW 3.5 mph /  5.6 km/h 3.5 mph /  5.6 km/h 48 % 0.0 in /  0 mm
21:16 10.8 °F /  -11.8 °C 0.2 °F /  -17.7 °C 1008.0 in /  34130.9 hPa SW 3.7 mph /  6 km/h 3.7 mph /  6 km/h 48 % 0.0 in /  0 mm
21:21 10.7 °F /  -11.8 °C 0.1 °F /  -17.7 °C 1008.0 in /  34130.9 hPa WSW 1.9 mph /  3.1 km/h   48 % 0.0 in /  0 mm
21:22 10.7 °F /  -11.8 °C 0.1 °F /  -17.7 °C 1008.0 in /  34130.9 hPa WSW 1.9 mph /  3.1 km/h   48 % 0.0 in /  0 mm
21:27 10.7 °F /  -11.8 °C 0.1 °F /  -17.7 °C 1008.0 in /  34130.9 hPa WSW 1.9 mph /  3.1 km/h 1.9 mph /  3.1 km/h 48 % 0.0 in /  0 mm
21:30 6.3 °F /  -14.3 °C -0.9 °F /  -18.3 °C 1006.0 in /  34063.2 hPa Calm   1.6 mph /  2.6 km/h 60 % 0.0 in /  0 mm
21:32 10.7 °F /  -11.8 °C 0.4 °F /  -17.6 °C 1008.0 in /  34130.9 hPa Calm     49 % 0.0 in /  0 mm
21:35 10.7 °F /  -11.8 °C 0.4 °F /  -17.6 °C 1008.0 in /  34130.9 hPa Calm     49 % 0.0 in /  0 mm
21:38 10.7 °F /  -11.8 °C 0.4 °F /  -17.6 °C 1007.0 in /  34097 hPa West 2.6 mph /  4.2 km/h   49 % 0.0 in /  0 mm
21:40 6.1 °F /  -14.4 °C -1.1 °F /  -18.4 °C 1006.0 in /  34063.2 hPa Calm     60 % 0.0 in /  0 mm
21:43 10.8 °F /  -11.8 °C 0.5 °F /  -17.5 °C 1007.0 in /  34097 hPa Calm     49 % 0.0 in /  0 mm
21:46 10.8 °F /  -11.8 °C 0.5 °F /  -17.5 °C 1007.0 in /  34097 hPa West 3.9 mph /  6.3 km/h 3.9 mph /  6.3 km/h 49 % 0.0 in /  0 mm
21:49 10.9 °F /  -11.7 °C 0.6 °F /  -17.4 °C 1007.0 in /  34097 hPa WSW 5.6 mph /  9 km/h 5.6 mph /  9 km/h 49 % 0.0 in /  0 mm
21:50 6.1 °F /  -14.4 °C -0.9 °F /  -18.3 °C 1005.0 in /  34029.3 hPa Calm     61 % 0.0 in /  0 mm
21:52 11.0 °F /  -11.7 °C 0.7 °F /  -17.4 °C 1007.0 in /  34097 hPa WNW 5.0 mph /  8 km/h 5.0 mph /  8 km/h 49 % 0.0 in /  0 mm
21:57 11.0 °F /  -11.7 °C 0.7 °F /  -17.4 °C 1007.0 in /  34097 hPa SSW 3.7 mph /  6 km/h   49 % 0.0 in /  0 mm
21:58 11.0 °F /  -11.7 °C 0.7 °F /  -17.4 °C 1007.0 in /  34097 hPa SSW 2.3 mph /  3.7 km/h   49 % 0.0 in /  0 mm
21:59 10.9 °F /  -11.7 °C 0.6 °F /  -17.4 °C 1007.0 in /  34097 hPa SSW 2.6 mph /  4.2 km/h 2.6 mph /  4.2 km/h 49 % 0.0 in /  0 mm
22:03 10.7 °F /  -11.8 °C 0.4 °F /  -17.6 °C 1007.0 in /  34097 hPa SW 4.7 mph /  7.6 km/h 4.7 mph /  7.6 km/h 49 % 0.0 in /  0 mm
22:08 10.4 °F /  -12 °C 0.1 °F /  -17.7 °C 1007.0 in /  34097 hPa South 5.6 mph /  9 km/h 5.6 mph /  9 km/h 49 % 0.0 in /  0 mm
22:10 5.8 °F /  -14.6 °C -1.2 °F /  -18.4 °C 1005.0 in /  34029.3 hPa East 1.6 mph /  2.6 km/h 1.6 mph /  2.6 km/h 61 % 0.0 in /  0 mm
22:12 10.4 °F /  -12 °C 0.4 °F /  -17.6 °C 1007.0 in /  34097 hPa WSW 5.6 mph /  9 km/h 5.6 mph /  9 km/h 50 % 0.0 in /  0 mm
22:13 10.4 °F /  -12 °C 0.4 °F /  -17.6 °C 1007.0 in /  34097 hPa WSW 3.9 mph /  6.3 km/h 3.9 mph /  6.3 km/h 50 % 0.0 in /  0 mm
22:18 10.3 °F /  -12.1 °C 0.3 °F /  -17.6 °C 1007.0 in /  34097 hPa SW 4.7 mph /  7.6 km/h 4.7 mph /  7.6 km/h 50 % 0.0 in /  0 mm
22:23 10.2 °F /  -12.1 °C 0.2 °F /  -17.7 °C 1007.0 in /  34097 hPa SW 7.4 mph /  11.9 km/h 7.4 mph /  11.9 km/h 50 % 0.0 in /  0 mm
22:25 10.2 °F /  -12.1 °C 0.2 °F /  -17.7 °C 1007.0 in /  34097 hPa WSW 7.4 mph /  11.9 km/h 7.4 mph /  11.9 km/h 50 % 0.0 in /  0 mm
22:30 10.3 °F /  -12.1 °C 0.3 °F /  -17.6 °C 1007.0 in /  34097 hPa West 5.6 mph /  9 km/h 5.6 mph /  9 km/h 50 % 0.0 in /  0 mm
22:31 10.3 °F /  -12.1 °C 0.3 °F /  -17.6 °C 1007.0 in /  34097 hPa WSW 5.6 mph /  9 km/h 5.6 mph /  9 km/h 50 % 0.0 in /  0 mm
22:32 10.4 °F /  -12 °C 0.4 °F /  -17.6 °C 1007.0 in /  34097 hPa WSW 3.9 mph /  6.3 km/h 3.9 mph /  6.3 km/h 50 % 0.0 in /  0 mm
22:36 10.4 °F /  -12 °C 0.4 °F /  -17.6 °C 1007.0 in /  34097 hPa SW 3.7 mph /  6 km/h 3.7 mph /  6 km/h 50 % 0.0 in /  0 mm
22:40 5.2 °F /  -14.9 °C -1.5 °F /  -18.6 °C 1003.9 in /  33992.1 hPa SW 1.6 mph /  2.6 km/h 3.2 mph /  5.1 km/h 62 % 0.0 in /  0 mm
22:41 10.4 °F /  -12 °C 0.4 °F /  -17.6 °C 1007.0 in /  34097 hPa WNW 3.7 mph /  6 km/h 3.7 mph /  6 km/h 50 % 0.0 in /  0 mm
22:44 10.3 °F /  -12.1 °C 0.3 °F /  -17.6 °C 1007.0 in /  34097 hPa WNW 2.3 mph /  3.7 km/h 2.6 mph /  4.2 km/h 50 % 0.0 in /  0 mm
22:49 10.4 °F /  -12 °C 0.7 °F /  -17.4 °C 1007.0 in /  34097 hPa West 3.7 mph /  6 km/h 3.7 mph /  6 km/h 51 % 0.0 in /  0 mm
22:54 10.4 °F /  -12 °C 0.7 °F /  -17.4 °C 1008.0 in /  34130.9 hPa West 3.7 mph /  6 km/h 3.7 mph /  6 km/h 51 % 0.0 in /  0 mm
22:56 10.4 °F /  -12 °C 0.7 °F /  -17.4 °C 1008.0 in /  34130.9 hPa WSW 3.9 mph /  6.3 km/h 3.9 mph /  6.3 km/h 51 % 0.0 in /  0 mm
22:59 10.4 °F /  -12 °C 0.7 °F /  -17.4 °C 1008.0 in /  34130.9 hPa SW 3.7 mph /  6 km/h 3.7 mph /  6 km/h 51 % 0.0 in /  0 mm
23:03 10.3 °F /  -12.1 °C 0.6 °F /  -17.4 °C 1008.0 in /  34130.9 hPa SW 1.9 mph /  3.1 km/h 1.9 mph /  3.1 km/h 51 % 0.0 in /  0 mm
23:06 10.2 °F /  -12.1 °C 0.5 °F /  -17.5 °C 1007.0 in /  34097 hPa SW 1.4 mph /  2.3 km/h   51 % 0.0 in /  0 mm
23:10 10.0 °F /  -12.2 °C 0.3 °F /  -17.6 °C 1007.0 in /  34097 hPa Calm     51 % 0.0 in /  0 mm
23:15 9.9 °F /  -12.3 °C 0.2 °F /  -17.7 °C 1007.0 in /  34097 hPa Calm     51 % 0.0 in /  0 mm
23:16 9.9 °F /  -12.3 °C 0.2 °F /  -17.7 °C 1007.0 in /  34097 hPa Calm     51 % 0.0 in /  0 mm
23:19 9.7 °F /  -12.4 °C 0.1 °F /  -17.7 °C 1007.0 in /  34097 hPa Calm     51 % 0.0 in /  0 mm
23:20 5.2 °F /  -14.9 °C -1.1 °F /  -18.4 °C 1003.9 in /  33992.1 hPa WNW 1.6 mph /  2.6 km/h 3.2 mph /  5.1 km/h 64 % 0.0 in /  0 mm
23:23 9.6 °F /  -12.4 °C -0.1 °F /  -17.8 °C 1007.0 in /  34097 hPa ENE 2.3 mph /  3.7 km/h 2.3 mph /  3.7 km/h 51 % 0.0 in /  0 mm
23:28 9.6 °F /  -12.4 °C 0.2 °F /  -17.7 °C 1007.0 in /  34097 hPa ENE 2.6 mph /  4.2 km/h   52 % 0.0 in /  0 mm
23:30 9.6 °F /  -12.4 °C 0.2 °F /  -17.7 °C 1007.0 in /  34097 hPa ENE 1.9 mph /  3.1 km/h 2.3 mph /  3.7 km/h 52 % 0.0 in /  0 mm
23:32 9.6 °F /  -12.4 °C 0.2 °F /  -17.7 °C 1007.0 in /  34097 hPa ENE 3.7 mph /  6 km/h 3.7 mph /  6 km/h 52 % 0.0 in /  0 mm
23:35 9.6 °F /  -12.4 °C 0.2 °F /  -17.7 °C 1007.0 in /  34097 hPa Calm     52 % 0.0 in /  0 mm
23:40 9.6 °F /  -12.4 °C 0.2 °F /  -17.7 °C 1007.0 in /  34097 hPa Calm     52 % 0.0 in /  0 mm
23:45 9.4 °F /  -12.6 °C 0.0 °F /  -17.8 °C 1007.0 in /  34097 hPa WNW 3.2 mph /  5.1 km/h   52 % 0.0 in /  0 mm
23:47 9.4 °F /  -12.6 °C 0.0 °F /  -17.8 °C 1007.0 in /  34097 hPa WNW 3.7 mph /  6 km/h 3.7 mph /  6 km/h 52 % 0.0 in /  0 mm
23:52 9.2 °F /  -12.7 °C -0.2 °F /  -17.9 °C 1007.0 in /  34097 hPa Calm     52 % 0.0 in /  0 mm
23:53 9.1 °F /  -12.7 °C -0.3 °F /  -17.9 °C 1007.0 in /  34097 hPa Calm     52 % 0.0 in /  0 mm
23:54 9.1 °F /  -12.7 °C -0.3 °F /  -17.9 °C 1007.0 in /  34097 hPa Calm     52 % 0.0 in /  0 mm
Meteo Sesrovires
Elogis d' Weather Underground - 1.75 mb

Guio original per  Jim McMurry - jmcmurry@mwt.net Adaptat per a la plantilla per  Wim van der Kuil - Leuven-Template.eu

Trobareu la nostra informacio del temps tambe a:

Weather Underground

AWEKAS